sensor_id;sensor_type;location;lat;lon;timestamp;P1;durP1;ratioP1;P2;durP2;ratioP2
26113;SDS011;13966;48.828;9.064;2023-03-30T00:00:59;11.10;;;2.85;;
26113;SDS011;13966;48.828;9.064;2023-03-30T00:03:26;14.40;;;3.10;;
26113;SDS011;13966;48.828;9.064;2023-03-30T00:05:52;13.65;;;2.83;;
26113;SDS011;13966;48.828;9.064;2023-03-30T00:08:24;11.75;;;2.25;;
26113;SDS011;13966;48.828;9.064;2023-03-30T00:10:51;12.73;;;2.50;;
26113;SDS011;13966;48.828;9.064;2023-03-30T00:13:19;11.30;;;2.35;;
26113;SDS011;13966;48.828;9.064;2023-03-30T00:15:45;16.17;;;2.63;;
26113;SDS011;13966;48.828;9.064;2023-03-30T00:18:11;11.18;;;2.47;;
26113;SDS011;13966;48.828;9.064;2023-03-30T00:20:38;21.25;;;2.30;;
26113;SDS011;13966;48.828;9.064;2023-03-30T00:23:06;10.98;;;2.28;;
26113;SDS011;13966;48.828;9.064;2023-03-30T00:25:33;15.98;;;2.50;;
26113;SDS011;13966;48.828;9.064;2023-03-30T00:27:59;12.90;;;2.22;;
26113;SDS011;13966;48.828;9.064;2023-03-30T00:30:25;12.88;;;2.85;;
26113;SDS011;13966;48.828;9.064;2023-03-30T00:32:51;14.68;;;3.00;;
26113;SDS011;13966;48.828;9.064;2023-03-30T00:35:18;14.45;;;2.42;;
26113;SDS011;13966;48.828;9.064;2023-03-30T00:37:44;9.98;;;2.40;;
26113;SDS011;13966;48.828;9.064;2023-03-30T00:40:15;18.40;;;3.05;;
26113;SDS011;13966;48.828;9.064;2023-03-30T00:42:41;20.02;;;2.65;;
26113;SDS011;13966;48.828;9.064;2023-03-30T00:45:20;15.82;;;2.67;;
26113;SDS011;13966;48.828;9.064;2023-03-30T00:47:55;15.73;;;3.25;;
26113;SDS011;13966;48.828;9.064;2023-03-30T00:50:23;10.40;;;2.63;;
26113;SDS011;13966;48.828;9.064;2023-03-30T00:52:51;11.68;;;2.45;;
26113;SDS011;13966;48.828;9.064;2023-03-30T00:55:19;15.35;;;2.67;;
26113;SDS011;13966;48.828;9.064;2023-03-30T00:57:46;12.20;;;2.58;;
26113;SDS011;13966;48.828;9.064;2023-03-30T01:00:13;17.20;;;2.90;;
26113;SDS011;13966;48.828;9.064;2023-03-30T01:02:43;12.93;;;2.60;;
26113;SDS011;13966;48.828;9.064;2023-03-30T01:05:10;13.95;;;2.65;;
26113;SDS011;13966;48.828;9.064;2023-03-30T01:07:37;10.93;;;2.63;;
26113;SDS011;13966;48.828;9.064;2023-03-30T01:10:04;21.65;;;2.53;;
26113;SDS011;13966;48.828;9.064;2023-03-30T01:12:32;15.30;;;2.95;;
26113;SDS011;13966;48.828;9.064;2023-03-30T01:14:58;16.67;;;2.83;;
26113;SDS011;13966;48.828;9.064;2023-03-30T01:17:31;16.80;;;3.20;;
26113;SDS011;13966;48.828;9.064;2023-03-30T01:22:53;12.52;;;2.78;;
26113;SDS011;13966;48.828;9.064;2023-03-30T01:30:48;15.77;;;2.78;;
26113;SDS011;13966;48.828;9.064;2023-03-30T01:35:44;15.80;;;2.33;;
26113;SDS011;13966;48.828;9.064;2023-03-30T01:41:30;19.98;;;3.70;;
26113;SDS011;13966;48.828;9.064;2023-03-30T01:46:25;14.60;;;3.17;;
26113;SDS011;13966;48.828;9.064;2023-03-30T01:51:31;22.30;;;3.22;;
26113;SDS011;13966;48.828;9.064;2023-03-30T01:54:09;11.00;;;2.33;;
26113;SDS011;13966;48.828;9.064;2023-03-30T01:59:12;13.90;;;3.13;;
26113;SDS011;13966;48.828;9.064;2023-03-30T02:01:41;21.63;;;3.17;;
26113;SDS011;13966;48.828;9.064;2023-03-30T02:04:13;13.70;;;3.45;;
26113;SDS011;13966;48.828;9.064;2023-03-30T02:06:41;18.35;;;3.70;;
26113;SDS011;13966;48.828;9.064;2023-03-30T02:09:10;17.48;;;2.85;;
26113;SDS011;13966;48.828;9.064;2023-03-30T02:11:37;19.02;;;3.25;;
26113;SDS011;13966;48.828;9.064;2023-03-30T02:14:05;16.83;;;3.05;;
26113;SDS011;13966;48.828;9.064;2023-03-30T02:16:36;12.65;;;2.70;;
26113;SDS011;13966;48.828;9.064;2023-03-30T02:19:02;16.17;;;3.10;;
26113;SDS011;13966;48.828;9.064;2023-03-30T02:21:30;14.05;;;3.22;;
26113;SDS011;13966;48.828;9.064;2023-03-30T02:23:57;18.58;;;3.72;;
26113;SDS011;13966;48.828;9.064;2023-03-30T02:26:23;16.90;;;3.05;;
26113;SDS011;13966;48.828;9.064;2023-03-30T02:28:51;17.85;;;3.00;;
26113;SDS011;13966;48.828;9.064;2023-03-30T02:31:17;12.45;;;2.92;;
26113;SDS011;13966;48.828;9.064;2023-03-30T02:38:57;15.40;;;3.30;;
26113;SDS011;13966;48.828;9.064;2023-03-30T02:46:51;15.40;;;2.92;;
26113;SDS011;13966;48.828;9.064;2023-03-30T02:49:23;16.92;;;2.85;;
26113;SDS011;13966;48.828;9.064;2023-03-30T02:51:51;19.90;;;3.35;;
26113;SDS011;13966;48.828;9.064;2023-03-30T02:54:21;22.83;;;3.15;;
26113;SDS011;13966;48.828;9.064;2023-03-30T02:59:21;29.67;;;4.85;;
26113;SDS011;13966;48.828;9.064;2023-03-30T03:01:59;24.95;;;4.20;;
26113;SDS011;13966;48.828;9.064;2023-03-30T03:04:26;15.35;;;4.20;;
26113;SDS011;13966;48.828;9.064;2023-03-30T03:06:53;19.63;;;4.72;;
26113;SDS011;13966;48.828;9.064;2023-03-30T03:09:20;20.17;;;4.18;;
26113;SDS011;13966;48.828;9.064;2023-03-30T03:11:50;20.97;;;3.63;;
26113;SDS011;13966;48.828;9.064;2023-03-30T03:14:16;20.77;;;4.38;;
26113;SDS011;13966;48.828;9.064;2023-03-30T03:16:42;15.10;;;3.60;;
26113;SDS011;13966;48.828;9.064;2023-03-30T03:19:08;20.95;;;3.85;;
26113;SDS011;13966;48.828;9.064;2023-03-30T03:21:34;19.90;;;3.78;;
26113;SDS011;13966;48.828;9.064;2023-03-30T03:24:01;22.63;;;3.47;;
26113;SDS011;13966;48.828;9.064;2023-03-30T03:26:27;23.00;;;4.30;;
26113;SDS011;13966;48.828;9.064;2023-03-30T03:28:53;23.40;;;3.67;;
26113;SDS011;13966;48.828;9.064;2023-03-30T03:31:19;27.27;;;4.93;;
26113;SDS011;13966;48.828;9.064;2023-03-30T03:33:46;23.92;;;4.03;;
26113;SDS011;13966;48.828;9.064;2023-03-30T03:36:12;23.25;;;4.15;;
26113;SDS011;13966;48.828;9.064;2023-03-30T03:38:38;28.95;;;4.43;;
26113;SDS011;13966;48.828;9.064;2023-03-30T03:41:04;16.20;;;4.35;;
26113;SDS011;13966;48.828;9.064;2023-03-30T03:43:31;21.75;;;4.15;;
26113;SDS011;13966;48.828;9.064;2023-03-30T03:45:57;22.45;;;4.35;;
26113;SDS011;13966;48.828;9.064;2023-03-30T03:48:23;20.45;;;3.85;;
26113;SDS011;13966;48.828;9.064;2023-03-30T03:50:50;20.77;;;4.53;;
26113;SDS011;13966;48.828;9.064;2023-03-30T03:53:17;22.73;;;4.13;;
26113;SDS011;13966;48.828;9.064;2023-03-30T03:55:43;28.83;;;4.55;;
26113;SDS011;13966;48.828;9.064;2023-03-30T03:58:13;16.98;;;3.55;;
26113;SDS011;13966;48.828;9.064;2023-03-30T04:00:41;16.60;;;4.40;;
26113;SDS011;13966;48.828;9.064;2023-03-30T04:03:07;15.85;;;3.63;;
26113;SDS011;13966;48.828;9.064;2023-03-30T04:05:34;24.25;;;4.20;;
26113;SDS011;13966;48.828;9.064;2023-03-30T04:08:00;23.23;;;4.22;;
26113;SDS011;13966;48.828;9.064;2023-03-30T04:10:26;22.63;;;4.20;;
26113;SDS011;13966;48.828;9.064;2023-03-30T04:12:55;26.02;;;4.38;;
26113;SDS011;13966;48.828;9.064;2023-03-30T04:15:22;18.48;;;3.55;;
26113;SDS011;13966;48.828;9.064;2023-03-30T04:17:48;23.80;;;3.95;;
26113;SDS011;13966;48.828;9.064;2023-03-30T04:20:21;16.60;;;3.92;;
26113;SDS011;13966;48.828;9.064;2023-03-30T04:22:48;11.27;;;3.50;;
26113;SDS011;13966;48.828;9.064;2023-03-30T04:25:14;19.25;;;4.13;;
26113;SDS011;13966;48.828;9.064;2023-03-30T04:27:41;13.20;;;4.13;;
26113;SDS011;13966;48.828;9.064;2023-03-30T04:30:07;16.13;;;3.58;;
26113;SDS011;13966;48.828;9.064;2023-03-30T04:32:33;17.27;;;3.67;;
26113;SDS011;13966;48.828;9.064;2023-03-30T04:35:03;16.08;;;3.80;;
26113;SDS011;13966;48.828;9.064;2023-03-30T04:37:30;28.60;;;4.97;;
26113;SDS011;13966;48.828;9.064;2023-03-30T04:39:59;16.15;;;3.88;;
26113;SDS011;13966;48.828;9.064;2023-03-30T04:42:26;17.00;;;4.25;;
26113;SDS011;13966;48.828;9.064;2023-03-30T04:44:58;26.40;;;3.97;;
26113;SDS011;13966;48.828;9.064;2023-03-30T04:47:25;17.52;;;3.90;;
26113;SDS011;13966;48.828;9.064;2023-03-30T04:49:51;26.38;;;4.13;;
26113;SDS011;13966;48.828;9.064;2023-03-30T04:52:17;21.38;;;3.60;;
26113;SDS011;13966;48.828;9.064;2023-03-30T04:54:44;20.80;;;3.92;;
26113;SDS011;13966;48.828;9.064;2023-03-30T04:57:10;21.90;;;3.80;;
26113;SDS011;13966;48.828;9.064;2023-03-30T04:59:37;24.30;;;4.88;;
26113;SDS011;13966;48.828;9.064;2023-03-30T05:02:04;17.85;;;3.95;;
26113;SDS011;13966;48.828;9.064;2023-03-30T05:04:32;22.00;;;4.00;;
26113;SDS011;13966;48.828;9.064;2023-03-30T05:06:58;19.38;;;4.03;;
26113;SDS011;13966;48.828;9.064;2023-03-30T05:09:24;21.90;;;3.85;;
26113;SDS011;13966;48.828;9.064;2023-03-30T05:11:50;17.73;;;3.60;;
26113;SDS011;13966;48.828;9.064;2023-03-30T05:14:17;20.08;;;4.03;;
26113;SDS011;13966;48.828;9.064;2023-03-30T05:16:43;19.20;;;4.05;;
26113;SDS011;13966;48.828;9.064;2023-03-30T05:19:09;15.60;;;4.03;;
26113;SDS011;13966;48.828;9.064;2023-03-30T05:21:35;18.73;;;3.53;;
26113;SDS011;13966;48.828;9.064;2023-03-30T05:24:01;13.88;;;3.50;;
26113;SDS011;13966;48.828;9.064;2023-03-30T05:26:27;15.88;;;4.20;;
26113;SDS011;13966;48.828;9.064;2023-03-30T05:28:53;26.40;;;3.65;;
26113;SDS011;13966;48.828;9.064;2023-03-30T05:31:19;19.35;;;3.80;;
26113;SDS011;13966;48.828;9.064;2023-03-30T05:33:46;18.83;;;4.22;;
26113;SDS011;13966;48.828;9.064;2023-03-30T05:36:12;17.73;;;3.72;;
26113;SDS011;13966;48.828;9.064;2023-03-30T05:38:38;22.67;;;4.22;;
26113;SDS011;13966;48.828;9.064;2023-03-30T05:41:05;20.73;;;4.13;;
26113;SDS011;13966;48.828;9.064;2023-03-30T05:43:34;22.58;;;4.28;;
26113;SDS011;13966;48.828;9.064;2023-03-30T05:46:00;18.25;;;3.70;;
26113;SDS011;13966;48.828;9.064;2023-03-30T05:48:27;14.15;;;3.47;;
26113;SDS011;13966;48.828;9.064;2023-03-30T05:50:53;21.27;;;3.80;;
26113;SDS011;13966;48.828;9.064;2023-03-30T05:53:19;19.10;;;3.65;;
26113;SDS011;13966;48.828;9.064;2023-03-30T05:55:46;17.77;;;4.25;;
26113;SDS011;13966;48.828;9.064;2023-03-30T05:58:12;18.15;;;3.55;;
26113;SDS011;13966;48.828;9.064;2023-03-30T06:00:39;17.27;;;3.97;;
26113;SDS011;13966;48.828;9.064;2023-03-30T06:03:11;18.98;;;4.15;;
26113;SDS011;13966;48.828;9.064;2023-03-30T06:05:38;22.50;;;4.35;;
26113;SDS011;13966;48.828;9.064;2023-03-30T06:08:05;22.90;;;3.97;;
26113;SDS011;13966;48.828;9.064;2023-03-30T06:10:32;20.13;;;3.80;;
26113;SDS011;13966;48.828;9.064;2023-03-30T06:12:58;19.80;;;4.80;;
26113;SDS011;13966;48.828;9.064;2023-03-30T06:15:24;16.38;;;4.57;;
26113;SDS011;13966;48.828;9.064;2023-03-30T06:17:51;18.33;;;4.05;;
26113;SDS011;13966;48.828;9.064;2023-03-30T06:20:17;27.15;;;4.60;;
26113;SDS011;13966;48.828;9.064;2023-03-30T06:22:45;13.07;;;4.50;;
26113;SDS011;13966;48.828;9.064;2023-03-30T06:25:11;18.98;;;3.90;;
26113;SDS011;13966;48.828;9.064;2023-03-30T06:27:37;26.52;;;5.05;;
26113;SDS011;13966;48.828;9.064;2023-03-30T06:30:04;25.95;;;4.65;;
26113;SDS011;13966;48.828;9.064;2023-03-30T06:32:30;19.65;;;4.68;;
26113;SDS011;13966;48.828;9.064;2023-03-30T06:34:56;16.45;;;3.85;;
26113;SDS011;13966;48.828;9.064;2023-03-30T06:37:22;14.02;;;4.35;;
26113;SDS011;13966;48.828;9.064;2023-03-30T06:39:49;20.00;;;4.07;;
26113;SDS011;13966;48.828;9.064;2023-03-30T06:42:15;24.05;;;4.93;;
26113;SDS011;13966;48.828;9.064;2023-03-30T06:44:41;26.60;;;5.25;;
26113;SDS011;13966;48.828;9.064;2023-03-30T06:47:07;22.08;;;4.10;;
26113;SDS011;13966;48.828;9.064;2023-03-30T06:49:33;26.10;;;4.45;;
26113;SDS011;13966;48.828;9.064;2023-03-30T06:51:59;18.17;;;3.75;;
26113;SDS011;13966;48.828;9.064;2023-03-30T06:54:25;19.48;;;4.32;;
26113;SDS011;13966;48.828;9.064;2023-03-30T06:56:51;18.17;;;4.18;;
26113;SDS011;13966;48.828;9.064;2023-03-30T06:59:17;23.27;;;4.45;;
26113;SDS011;13966;48.828;9.064;2023-03-30T07:01:43;15.32;;;3.92;;
26113;SDS011;13966;48.828;9.064;2023-03-30T07:04:09;21.83;;;4.50;;
26113;SDS011;13966;48.828;9.064;2023-03-30T07:06:35;20.90;;;4.80;;
26113;SDS011;13966;48.828;9.064;2023-03-30T07:09:02;23.17;;;5.63;;
26113;SDS011;13966;48.828;9.064;2023-03-30T07:11:30;18.63;;;4.00;;
26113;SDS011;13966;48.828;9.064;2023-03-30T07:13:56;22.95;;;5.22;;
26113;SDS011;13966;48.828;9.064;2023-03-30T07:16:22;21.45;;;5.55;;
26113;SDS011;13966;48.828;9.064;2023-03-30T07:18:48;23.13;;;5.18;;
26113;SDS011;13966;48.828;9.064;2023-03-30T07:21:16;18.35;;;4.57;;
26113;SDS011;13966;48.828;9.064;2023-03-30T07:23:42;20.75;;;5.80;;
26113;SDS011;13966;48.828;9.064;2023-03-30T07:26:08;27.45;;;6.13;;
26113;SDS011;13966;48.828;9.064;2023-03-30T07:28:34;21.38;;;6.80;;
26113;SDS011;13966;48.828;9.064;2023-03-30T07:31:06;21.58;;;5.95;;
26113;SDS011;13966;48.828;9.064;2023-03-30T07:33:32;19.17;;;5.20;;
26113;SDS011;13966;48.828;9.064;2023-03-30T07:35:58;20.67;;;5.13;;
26113;SDS011;13966;48.828;9.064;2023-03-30T07:38:24;25.00;;;5.50;;
26113;SDS011;13966;48.828;9.064;2023-03-30T07:40:51;20.25;;;5.55;;
26113;SDS011;13966;48.828;9.064;2023-03-30T07:43:17;18.50;;;5.53;;
26113;SDS011;13966;48.828;9.064;2023-03-30T07:45:43;11.98;;;4.72;;
26113;SDS011;13966;48.828;9.064;2023-03-30T07:48:09;18.40;;;6.00;;
26113;SDS011;13966;48.828;9.064;2023-03-30T07:50:35;23.23;;;6.10;;
26113;SDS011;13966;48.828;9.064;2023-03-30T07:53:02;13.45;;;5.28;;
26113;SDS011;13966;48.828;9.064;2023-03-30T07:55:28;15.20;;;5.53;;
26113;SDS011;13966;48.828;9.064;2023-03-30T07:57:54;22.02;;;6.85;;
26113;SDS011;13966;48.828;9.064;2023-03-30T08:00:21;22.90;;;7.55;;
26113;SDS011;13966;48.828;9.064;2023-03-30T08:02:48;22.45;;;7.95;;
26113;SDS011;13966;48.828;9.064;2023-03-30T08:05:14;13.77;;;6.32;;
26113;SDS011;13966;48.828;9.064;2023-03-30T08:07:41;17.42;;;6.30;;
26113;SDS011;13966;48.828;9.064;2023-03-30T08:10:08;16.67;;;5.88;;
26113;SDS011;13966;48.828;9.064;2023-03-30T08:12:34;21.63;;;6.07;;
26113;SDS011;13966;48.828;9.064;2023-03-30T08:15:00;13.80;;;6.82;;
26113;SDS011;13966;48.828;9.064;2023-03-30T08:17:26;21.85;;;6.90;;
26113;SDS011;13966;48.828;9.064;2023-03-30T08:19:52;18.05;;;6.18;;
26113;SDS011;13966;48.828;9.064;2023-03-30T08:22:20;15.85;;;5.22;;
26113;SDS011;13966;48.828;9.064;2023-03-30T08:24:46;18.10;;;5.50;;
26113;SDS011;13966;48.828;9.064;2023-03-30T08:27:12;20.52;;;5.13;;
26113;SDS011;13966;48.828;9.064;2023-03-30T08:29:39;12.25;;;5.65;;
26113;SDS011;13966;48.828;9.064;2023-03-30T08:32:05;11.45;;;4.63;;
26113;SDS011;13966;48.828;9.064;2023-03-30T08:34:31;12.13;;;4.63;;
26113;SDS011;13966;48.828;9.064;2023-03-30T08:36:57;14.13;;;4.82;;
26113;SDS011;13966;48.828;9.064;2023-03-30T08:39:23;8.95;;;4.00;;
26113;SDS011;13966;48.828;9.064;2023-03-30T08:46:43;10.25;;;4.22;;
26113;SDS011;13966;48.828;9.064;2023-03-30T08:49:12;21.75;;;4.93;;
26113;SDS011;13966;48.828;9.064;2023-03-30T08:51:39;13.25;;;4.30;;
26113;SDS011;13966;48.828;9.064;2023-03-30T08:54:08;9.57;;;4.03;;
26113;SDS011;13966;48.828;9.064;2023-03-30T08:56:39;13.85;;;3.97;;
26113;SDS011;13966;48.828;9.064;2023-03-30T09:01:38;17.48;;;4.57;;
26113;SDS011;13966;48.828;9.064;2023-03-30T09:06:48;6.50;;;2.92;;
26113;SDS011;13966;48.828;9.064;2023-03-30T09:09:23;7.13;;;2.53;;
26113;SDS011;13966;48.828;9.064;2023-03-30T09:11:55;5.57;;;2.67;;
26113;SDS011;13966;48.828;9.064;2023-03-30T09:14:27;5.38;;;2.15;;
26113;SDS011;13966;48.828;9.064;2023-03-30T09:16:59;8.32;;;2.22;;
26113;SDS011;13966;48.828;9.064;2023-03-30T09:19:32;11.40;;;2.33;;
26113;SDS011;13966;48.828;9.064;2023-03-30T09:24:26;8.05;;;2.72;;
26113;SDS011;13966;48.828;9.064;2023-03-30T09:27:55;10.27;;;3.08;;
26113;SDS011;13966;48.828;9.064;2023-03-30T09:29:49;8.45;;;2.10;;
26113;SDS011;13966;48.828;9.064;2023-03-30T09:32:21;4.63;;;2.53;;
26113;SDS011;13966;48.828;9.064;2023-03-30T09:35:13;6.75;;;2.15;;
26113;SDS011;13966;48.828;9.064;2023-03-30T09:37:38;6.75;;;2.60;;
26113;SDS011;13966;48.828;9.064;2023-03-30T09:42:56;5.40;;;2.20;;
26113;SDS011;13966;48.828;9.064;2023-03-30T09:45:27;6.22;;;2.15;;
26113;SDS011;13966;48.828;9.064;2023-03-30T09:47:55;7.00;;;2.50;;
26113;SDS011;13966;48.828;9.064;2023-03-30T09:50:25;7.25;;;2.50;;
26113;SDS011;13966;48.828;9.064;2023-03-30T09:53:00;8.50;;;2.60;;
26113;SDS011;13966;48.828;9.064;2023-03-30T09:55:28;4.25;;;1.90;;
26113;SDS011;13966;48.828;9.064;2023-03-30T09:58:12;4.63;;;2.08;;
26113;SDS011;13966;48.828;9.064;2023-03-30T10:00:39;3.67;;;1.83;;
26113;SDS011;13966;48.828;9.064;2023-03-30T10:03:05;6.80;;;2.10;;
26113;SDS011;13966;48.828;9.064;2023-03-30T10:05:34;7.18;;;2.00;;
26113;SDS011;13966;48.828;9.064;2023-03-30T10:08:02;7.22;;;2.15;;
26113;SDS011;13966;48.828;9.064;2023-03-30T10:10:38;7.55;;;2.38;;
26113;SDS011;13966;48.828;9.064;2023-03-30T10:15:35;6.57;;;2.20;;
26113;SDS011;13966;48.828;9.064;2023-03-30T10:18:05;6.93;;;2.33;;
26113;SDS011;13966;48.828;9.064;2023-03-30T10:20:40;6.00;;;2.00;;
26113;SDS011;13966;48.828;9.064;2023-03-30T10:23:15;8.85;;;2.58;;
26113;SDS011;13966;48.828;9.064;2023-03-30T10:25:43;6.13;;;2.30;;
26113;SDS011;13966;48.828;9.064;2023-03-30T10:28:24;7.97;;;2.35;;
26113;SDS011;13966;48.828;9.064;2023-03-30T10:30:51;9.55;;;2.70;;
26113;SDS011;13966;48.828;9.064;2023-03-30T10:33:19;7.30;;;2.03;;
26113;SDS011;13966;48.828;9.064;2023-03-30T10:35:46;5.18;;;2.30;;
26113;SDS011;13966;48.828;9.064;2023-03-30T10:38:12;5.65;;;2.53;;
26113;SDS011;13966;48.828;9.064;2023-03-30T10:40:43;8.13;;;2.10;;
26113;SDS011;13966;48.828;9.064;2023-03-30T10:43:11;5.57;;;2.38;;
26113;SDS011;13966;48.828;9.064;2023-03-30T10:45:46;3.33;;;2.10;;
26113;SDS011;13966;48.828;9.064;2023-03-30T10:48:22;5.82;;;2.17;;
26113;SDS011;13966;48.828;9.064;2023-03-30T10:51:02;8.13;;;2.10;;
26113;SDS011;13966;48.828;9.064;2023-03-30T11:03:39;8.88;;;4.50;;
26113;SDS011;13966;48.828;9.064;2023-03-30T11:06:12;7.88;;;3.40;;
26113;SDS011;13966;48.828;9.064;2023-03-30T11:08:41;8.35;;;2.65;;
26113;SDS011;13966;48.828;9.064;2023-03-30T11:11:10;7.05;;;2.40;;
26113;SDS011;13966;48.828;9.064;2023-03-30T11:13:40;4.90;;;2.15;;
26113;SDS011;13966;48.828;9.064;2023-03-30T11:19:03;9.20;;;2.92;;
26113;SDS011;13966;48.828;9.064;2023-03-30T11:21:33;5.20;;;2.30;;
26113;SDS011;13966;48.828;9.064;2023-03-30T11:24:34;7.03;;;2.08;;
26113;SDS011;13966;48.828;9.064;2023-03-30T11:27:27;7.00;;;2.20;;
26113;SDS011;13966;48.828;9.064;2023-03-30T11:32:31;5.10;;;2.33;;
26113;SDS011;13966;48.828;9.064;2023-03-30T11:35:13;4.38;;;2.25;;
26113;SDS011;13966;48.828;9.064;2023-03-30T11:40:29;4.45;;;2.00;;
26113;SDS011;13966;48.828;9.064;2023-03-30T11:42:57;9.00;;;2.53;;
26113;SDS011;13966;48.828;9.064;2023-03-30T11:47:56;6.25;;;1.77;;
26113;SDS011;13966;48.828;9.064;2023-03-30T11:50:27;7.32;;;2.17;;
26113;SDS011;13966;48.828;9.064;2023-03-30T11:58:12;8.63;;;2.30;;
26113;SDS011;13966;48.828;9.064;2023-03-30T12:08:11;3.97;;;1.88;;
26113;SDS011;13966;48.828;9.064;2023-03-30T12:10:42;5.97;;;1.95;;
26113;SDS011;13966;48.828;9.064;2023-03-30T12:13:12;7.95;;;1.90;;
26113;SDS011;13966;48.828;9.064;2023-03-30T12:15:53;3.83;;;1.70;;
26113;SDS011;13966;48.828;9.064;2023-03-30T12:18:25;5.90;;;1.70;;
26113;SDS011;13966;48.828;9.064;2023-03-30T12:20:54;4.90;;;1.92;;
26113;SDS011;13966;48.828;9.064;2023-03-30T12:23:32;8.40;;;1.73;;
26113;SDS011;13966;48.828;9.064;2023-03-30T12:28:54;6.97;;;2.33;;
26113;SDS011;13966;48.828;9.064;2023-03-30T12:31:22;4.03;;;1.80;;
26113;SDS011;13966;48.828;9.064;2023-03-30T12:33:49;8.30;;;2.15;;
26113;SDS011;13966;48.828;9.064;2023-03-30T12:36:34;6.13;;;2.22;;
26113;SDS011;13966;48.828;9.064;2023-03-30T12:39:03;7.32;;;2.15;;
26113;SDS011;13966;48.828;9.064;2023-03-30T12:41:37;7.03;;;2.53;;
26113;SDS011;13966;48.828;9.064;2023-03-30T12:46:50;4.75;;;1.80;;
26113;SDS011;13966;48.828;9.064;2023-03-30T13:00:55;10.20;;;2.40;;
26113;SDS011;13966;48.828;9.064;2023-03-30T13:08:53;6.28;;;2.17;;
26113;SDS011;13966;48.828;9.064;2023-03-30T13:11:20;5.07;;;2.13;;
26113;SDS011;13966;48.828;9.064;2023-03-30T13:19:24;10.65;;;2.30;;
26113;SDS011;13966;48.828;9.064;2023-03-30T13:21:54;5.53;;;1.75;;
26113;SDS011;13966;48.828;9.064;2023-03-30T13:29:56;4.65;;;1.83;;
26113;SDS011;13966;48.828;9.064;2023-03-30T13:40:19;3.03;;;1.42;;
26113;SDS011;13966;48.828;9.064;2023-03-30T13:43:24;2.70;;;1.30;;
26113;SDS011;13966;48.828;9.064;2023-03-30T13:50:59;3.75;;;1.50;;
26113;SDS011;13966;48.828;9.064;2023-03-30T13:53:29;5.68;;;1.70;;
26113;SDS011;13966;48.828;9.064;2023-03-30T13:55:55;7.45;;;1.88;;
26113;SDS011;13966;48.828;9.064;2023-03-30T13:58:29;6.47;;;2.30;;
26113;SDS011;13966;48.828;9.064;2023-03-30T14:01:01;4.88;;;1.60;;
26113;SDS011;13966;48.828;9.064;2023-03-30T14:05:55;6.78;;;1.83;;
26113;SDS011;13966;48.828;9.064;2023-03-30T14:08:26;3.92;;;1.85;;
26113;SDS011;13966;48.828;9.064;2023-03-30T14:10:54;5.88;;;2.22;;
26113;SDS011;13966;48.828;9.064;2023-03-30T14:13:20;6.55;;;1.73;;
26113;SDS011;13966;48.828;9.064;2023-03-30T14:15:50;5.05;;;1.70;;
26113;SDS011;13966;48.828;9.064;2023-03-30T14:18:20;4.60;;;1.60;;
26113;SDS011;13966;48.828;9.064;2023-03-30T14:20:57;5.20;;;1.65;;
26113;SDS011;13966;48.828;9.064;2023-03-30T14:23:30;8.48;;;2.08;;
26113;SDS011;13966;48.828;9.064;2023-03-30T14:25:57;6.72;;;1.90;;
26113;SDS011;13966;48.828;9.064;2023-03-30T14:28:25;6.53;;;1.70;;
26113;SDS011;13966;48.828;9.064;2023-03-30T14:30:53;7.75;;;2.22;;
26113;SDS011;13966;48.828;9.064;2023-03-30T14:33:19;5.30;;;1.52;;
26113;SDS011;13966;48.828;9.064;2023-03-30T14:35:47;7.70;;;2.25;;
26113;SDS011;13966;48.828;9.064;2023-03-30T14:38:24;5.72;;;1.90;;
26113;SDS011;13966;48.828;9.064;2023-03-30T14:40:51;3.80;;;1.58;;
26113;SDS011;13966;48.828;9.064;2023-03-30T14:43:24;6.93;;;1.77;;
26113;SDS011;13966;48.828;9.064;2023-03-30T14:45:52;4.93;;;1.60;;
26113;SDS011;13966;48.828;9.064;2023-03-30T14:48:23;4.85;;;1.30;;
26113;SDS011;13966;48.828;9.064;2023-03-30T14:50:51;5.88;;;1.45;;
26113;SDS011;13966;48.828;9.064;2023-03-30T14:53:19;9.35;;;1.00;;
26113;SDS011;13966;48.828;9.064;2023-03-30T14:55:46;4.40;;;1.23;;
26113;SDS011;13966;48.828;9.064;2023-03-30T14:58:13;4.00;;;0.90;;
26113;SDS011;13966;48.828;9.064;2023-03-30T15:00:40;4.10;;;1.15;;
26113;SDS011;13966;48.828;9.064;2023-03-30T15:03:07;1.85;;;0.98;;
26113;SDS011;13966;48.828;9.064;2023-03-30T15:05:35;1.20;;;0.88;;
26113;SDS011;13966;48.828;9.064;2023-03-30T15:08:02;6.05;;;1.27;;
26113;SDS011;13966;48.828;9.064;2023-03-30T15:10:34;3.47;;;1.40;;
26113;SDS011;13966;48.828;9.064;2023-03-30T15:13:02;2.47;;;1.00;;
26113;SDS011;13966;48.828;9.064;2023-03-30T15:15:31;4.90;;;1.00;;
26113;SDS011;13966;48.828;9.064;2023-03-30T15:17:57;4.78;;;1.35;;
26113;SDS011;13966;48.828;9.064;2023-03-30T15:20:24;5.72;;;1.70;;
26113;SDS011;13966;48.828;9.064;2023-03-30T15:22:51;3.75;;;1.30;;
26113;SDS011;13966;48.828;9.064;2023-03-30T15:25:19;5.95;;;1.58;;
26113;SDS011;13966;48.828;9.064;2023-03-30T15:27:56;3.45;;;1.15;;
26113;SDS011;13966;48.828;9.064;2023-03-30T15:32:55;7.63;;;1.60;;
26113;SDS011;13966;48.828;9.064;2023-03-30T15:35:22;4.18;;;1.42;;
26113;SDS011;13966;48.828;9.064;2023-03-30T15:37:53;2.20;;;1.05;;
26113;SDS011;13966;48.828;9.064;2023-03-30T15:45:42;5.28;;;1.40;;
26113;SDS011;13966;48.828;9.064;2023-03-30T15:50:37;4.28;;;1.33;;
26113;SDS011;13966;48.828;9.064;2023-03-30T15:53:04;4.30;;;1.30;;
26113;SDS011;13966;48.828;9.064;2023-03-30T15:55:31;3.53;;;1.25;;
26113;SDS011;13966;48.828;9.064;2023-03-30T15:57:58;3.47;;;1.33;;
26113;SDS011;13966;48.828;9.064;2023-03-30T16:00:26;5.85;;;1.58;;
26113;SDS011;13966;48.828;9.064;2023-03-30T16:02:56;4.75;;;1.40;;
26113;SDS011;13966;48.828;9.064;2023-03-30T16:05:24;2.95;;;1.00;;
26113;SDS011;13966;48.828;9.064;2023-03-30T16:07:50;5.55;;;1.42;;
26113;SDS011;13966;48.828;9.064;2023-03-30T16:10:17;5.13;;;1.30;;
26113;SDS011;13966;48.828;9.064;2023-03-30T16:12:45;3.13;;;1.10;;
26113;SDS011;13966;48.828;9.064;2023-03-30T16:15:14;3.28;;;1.30;;
26113;SDS011;13966;48.828;9.064;2023-03-30T16:17:41;7.13;;;1.40;;
26113;SDS011;13966;48.828;9.064;2023-03-30T16:22:40;4.97;;;1.17;;
26113;SDS011;13966;48.828;9.064;2023-03-30T16:25:06;5.28;;;1.30;;
26113;SDS011;13966;48.828;9.064;2023-03-30T16:27:32;5.90;;;1.48;;
26113;SDS011;13966;48.828;9.064;2023-03-30T16:29:58;5.32;;;1.40;;
26113;SDS011;13966;48.828;9.064;2023-03-30T16:32:24;2.53;;;1.02;;
26113;SDS011;13966;48.828;9.064;2023-03-30T16:34:50;2.35;;;0.88;;
26113;SDS011;13966;48.828;9.064;2023-03-30T16:37:18;5.78;;;1.33;;
26113;SDS011;13966;48.828;9.064;2023-03-30T16:39:44;3.35;;;0.98;;
26113;SDS011;13966;48.828;9.064;2023-03-30T16:42:10;3.58;;;1.02;;
26113;SDS011;13966;48.828;9.064;2023-03-30T16:44:36;4.43;;;1.48;;
26113;SDS011;13966;48.828;9.064;2023-03-30T16:47:02;4.47;;;1.42;;
26113;SDS011;13966;48.828;9.064;2023-03-30T16:49:28;3.75;;;1.20;;
26113;SDS011;13966;48.828;9.064;2023-03-30T16:51:55;3.78;;;1.23;;
26113;SDS011;13966;48.828;9.064;2023-03-30T16:54:21;4.93;;;1.70;;
26113;SDS011;13966;48.828;9.064;2023-03-30T16:56:47;5.78;;;1.70;;
26113;SDS011;13966;48.828;9.064;2023-03-30T16:59:20;4.22;;;1.20;;
26113;SDS011;13966;48.828;9.064;2023-03-30T17:01:46;5.95;;;1.20;;
26113;SDS011;13966;48.828;9.064;2023-03-30T17:04:12;4.05;;;1.20;;
26113;SDS011;13966;48.828;9.064;2023-03-30T17:06:38;3.88;;;1.10;;
26113;SDS011;13966;48.828;9.064;2023-03-30T17:09:07;5.55;;;1.50;;
26113;SDS011;13966;48.828;9.064;2023-03-30T17:11:34;2.90;;;0.90;;
26113;SDS011;13966;48.828;9.064;2023-03-30T17:14:00;2.85;;;1.13;;
26113;SDS011;13966;48.828;9.064;2023-03-30T17:16:26;4.43;;;1.23;;